Time;durP1;ratioP1;P1;durP2;ratioP2;P2;SDS_P1;SDS_P2;PMS_P1;PMS_P2;Temp;Humidity;BMP_temperature;BMP_pressure;BME280_temperature;BME280_humidity;BME280_pressure;Samples;Min_cycle;Max_cycle;Signal;HPM_P1;HPM_P2
2022/03/20 00:09:53;;;;;;;0.20;0.10;;;11.10;99.90;;;;;;20888793;28;20225;-72
2022/03/20 00:19:57;;;;;;;0.20;0.10;;;11.00;99.90;;;;;;20948916;28;20193;-67
2022/03/20 00:30:02;;;;;;;0.20;0.10;;;11.00;99.90;;;;;;20953059;28;20509;-68
2022/03/20 00:40:08;;;;;;;0.20;0.10;;;11.10;99.90;;;;;;20920293;28;20213;-67
2022/03/20 00:50:13;;;;;;;0.20;0.00;;;11.00;99.90;;;;;;20927811;28;20261;-66
2022/03/20 01:00:17;;;;;;;0.20;0.10;;;11.00;99.90;;;;;;20921219;28;20210;-68
2022/03/20 01:10:22;;;;;;;0.20;0.10;;;11.30;99.90;;;;;;20929003;28;20513;-67
2022/03/20 01:20:26;;;;;;;0.40;0.23;;;11.50;99.90;;;;;;20927702;28;20186;-66
2022/03/20 01:30:31;;;;;;;0.20;0.10;;;11.60;99.90;;;;;;20924607;28;20234;-73
2022/03/20 01:40:35;;;;;;;0.20;0.10;;;11.50;99.90;;;;;;20921838;28;20208;-73
2022/03/20 01:50:41;;;;;;;0.20;0.10;;;11.40;99.90;;;;;;20923522;28;20222;-67
2022/03/20 02:00:45;;;;;;;0.20;0.10;;;11.50;99.90;;;;;;20920348;28;20285;-67
2022/03/20 02:10:50;;;;;;;0.20;0.10;;;11.70;99.90;;;;;;20903496;28;20234;-67
2022/03/20 02:20:55;;;;;;;0.20;0.10;;;11.50;99.90;;;;;;20899645;28;20197;-67
2022/03/20 02:31:00;;;;;;;0.20;0.10;;;11.50;99.90;;;;;;20920604;28;20235;-67
2022/03/20 02:41:14;;;;;;;0.20;0.10;;;11.60;99.90;;;;;;20929110;28;20201;-67
2022/03/20 02:51:20;;;;;;;0.20;0.10;;;11.80;99.90;;;;;;20933585;28;20315;-67
2022/03/20 03:01:24;;;;;;;0.20;0.10;;;11.50;99.90;;;;;;20960941;28;20622;-68
2022/03/20 03:11:30;;;;;;;0.20;0.00;;;12.00;99.90;;;;;;20962003;28;20237;-68
2022/03/20 03:21:33;;;;;;;0.20;0.00;;;12.40;99.90;;;;;;20961557;28;20213;-67
2022/03/20 03:31:38;;;;;;;0.20;0.10;;;12.50;99.90;;;;;;20960642;28;20233;-68
2022/03/20 03:41:46;;;;;;;0.20;0.10;;;12.50;99.90;;;;;;20906111;28;20248;-74
2022/03/20 03:51:51;;;;;;;0.20;0.10;;;12.60;99.90;;;;;;20878715;28;20229;-76
2022/03/20 04:01:56;;;;;;;0.20;0.10;;;12.50;99.90;;;;;;20884716;28;20206;-66
2022/03/20 04:12:03;;;;;;;0.20;0.10;;;12.50;99.90;;;;;;20891972;28;20382;-67
2022/03/20 04:22:07;;;;;;;0.20;0.10;;;12.50;99.90;;;;;;20873896;28;20214;-66
2022/03/20 04:32:13;;;;;;;0.20;0.10;;;12.50;99.90;;;;;;20890467;28;20226;-66
2022/03/20 04:42:16;;;;;;;0.20;0.10;;;12.50;99.90;;;;;;20945768;28;20271;-66
2022/03/20 05:02:42;;;;;;;0.20;0.10;;;12.50;99.90;;;;;;20969277;28;20202;-74
2022/03/20 05:23:09;;;;;;;0.20;0.10;;;12.40;99.90;;;;;;20950670;28;20201;-66
2022/03/20 05:33:16;;;;;;;0.20;0.10;;;12.50;99.90;;;;;;20948939;28;20232;-79
2022/03/20 05:43:26;;;;;;;0.20;0.10;;;12.50;99.90;;;;;;20882413;28;20256;-80
2022/03/20 05:53:32;;;;;;;0.20;0.10;;;12.40;99.90;;;;;;20884592;28;20249;-67
2022/03/20 06:03:36;;;;;;;0.20;0.10;;;12.50;99.90;;;;;;20900119;28;20205;-79
2022/03/20 06:13:41;;;;;;;0.20;0.10;;;12.60;99.90;;;;;;20904683;28;20325;-80
2022/03/20 06:23:45;;;;;;;0.20;0.10;;;12.70;99.90;;;;;;20879223;28;20202;-78
2022/03/20 06:33:50;;;;;;;0.20;0.10;;;12.70;99.90;;;;;;20881530;28;20238;-77
2022/03/20 06:43:54;;;;;;;0.20;0.00;;;12.70;99.90;;;;;;20877218;28;20194;-77
2022/03/20 06:53:59;;;;;;;0.20;0.10;;;12.80;99.90;;;;;;20880657;28;20244;-77
2022/03/20 07:04:03;;;;;;;0.20;0.10;;;12.90;99.90;;;;;;20862223;28;20212;-66
2022/03/20 07:14:08;;;;;;;0.20;0.10;;;13.00;99.90;;;;;;20955309;28;20221;-66
2022/03/20 07:24:12;;;;;;;0.20;0.03;;;13.20;99.90;;;;;;20943432;28;20189;-67
2022/03/20 07:34:17;;;;;;;0.20;0.10;;;13.40;99.90;;;;;;20966469;28;20692;-65
2022/03/20 07:44:22;;;;;;;0.20;0.10;;;13.60;99.90;;;;;;20975122;28;20197;-76
2022/03/20 07:54:28;;;;;;;0.20;0.10;;;14.00;99.90;;;;;;20971607;28;20240;-66
2022/03/20 08:04:32;;;;;;;0.20;0.00;;;14.40;99.90;;;;;;20972069;28;20257;-67
2022/03/20 08:14:39;;;;;;;0.20;0.07;;;14.70;99.90;;;;;;20968928;28;20237;-67
2022/03/20 08:24:46;;;;;;;0.20;0.00;;;14.90;99.90;;;;;;20969260;28;20256;-67
2022/03/20 08:34:52;;;;;;;0.20;0.00;;;15.30;99.90;;;;;;20968900;28;20221;-67
2022/03/20 08:44:56;;;;;;;0.20;0.00;;;15.10;99.90;;;;;;20946228;28;20197;-67
2022/03/20 08:55:04;;;;;;;0.20;0.10;;;15.90;99.90;;;;;;20966845;28;20601;-79
2022/03/20 09:05:11;;;;;;;0.20;0.10;;;15.30;99.90;;;;;;20962363;28;20240;-77
2022/03/20 09:15:18;;;;;;;0.20;0.07;;;15.40;99.90;;;;;;20963067;28;20547;-78
2022/03/20 09:25:22;;;;;;;0.43;0.43;;;16.40;99.90;;;;;;20962887;28;20273;-78
2022/03/20 09:35:27;;;;;;;0.20;0.00;;;16.40;99.90;;;;;;20939294;28;20319;-74
2022/03/20 09:45:31;;;;;;;0.20;0.10;;;16.60;99.90;;;;;;20940951;28;20201;-75
2022/03/20 09:55:36;;;;;;;0.20;0.10;;;16.70;99.90;;;;;;20946443;28;20450;-74
2022/03/20 10:05:40;;;;;;;0.20;0.00;;;17.00;99.90;;;;;;20915075;28;20217;-74
2022/03/20 10:15:45;;;;;;;0.20;0.10;;;17.30;99.90;;;;;;20916309;28;20224;-75
2022/03/20 10:25:52;;;;;;;0.20;0.10;;;17.30;99.90;;;;;;20913609;28;20214;-73
2022/03/20 10:36:17;;;;;;;0.20;0.00;;;17.90;99.90;;;;;;20911618;28;20229;-75
2022/03/20 10:46:23;;;;;;;0.20;0.07;;;18.00;99.90;;;;;;20907953;28;20195;-72
2022/03/20 10:56:29;;;;;;;0.20;0.10;;;17.90;99.90;;;;;;20925290;28;20249;-75
2022/03/20 11:06:32;;;;;;;0.20;0.10;;;18.20;99.90;;;;;;20949241;28;20240;-69
2022/03/20 11:16:39;;;;;;;0.20;0.10;;;17.70;99.90;;;;;;20953400;28;20224;-68
2022/03/20 11:26:45;;;;;;;0.20;0.10;;;17.20;99.90;;;;;;20929325;28;20517;-68
2022/03/20 11:37:04;;;;;;;0.60;0.57;;;17.40;99.90;;;;;;20924289;28;20217;-76
2022/03/20 11:47:22;;;;;;;0.20;0.00;;;17.20;99.90;;;;;;20924357;28;21002;-74
2022/03/20 11:57:45;;;;;;;0.20;0.07;;;16.30;99.90;;;;;;20935345;28;20213;-72
2022/03/20 12:08:00;;;;;;;0.20;0.00;;;17.00;99.90;;;;;;20929367;28;20238;-74
2022/03/20 12:18:08;;;;;;;0.20;0.10;;;16.70;99.90;;;;;;20956942;28;20209;-75
2022/03/20 12:28:30;;;;;;;0.20;0.03;;;16.40;99.90;;;;;;20960938;28;20586;-72
2022/03/20 12:38:41;;;;;;;0.20;0.00;;;16.00;99.90;;;;;;20945656;28;20220;-75
2022/03/20 12:48:52;;;;;;;0.20;0.10;;;15.60;99.90;;;;;;20962836;28;20496;-73
2022/03/20 12:58:57;;;;;;;0.20;0.03;;;15.30;99.90;;;;;;20947277;28;20203;-74
2022/03/20 13:09:02;;;;;;;0.20;0.00;;;14.90;99.90;;;;;;20952410;28;20233;-73
2022/03/20 13:19:07;;;;;;;0.20;0.00;;;14.60;99.90;;;;;;20961454;28;20201;-73
2022/03/20 13:29:23;;;;;;;0.20;0.07;;;14.90;99.90;;;;;;20964544;28;20572;-73
2022/03/20 13:39:28;;;;;;;0.20;0.00;;;14.70;99.90;;;;;;20931464;28;20202;-72
2022/03/20 13:49:33;;;;;;;0.20;0.00;;;14.20;99.90;;;;;;20880756;28;20233;-73
2022/03/20 13:59:51;;;;;;;0.20;0.10;;;13.70;99.90;;;;;;20919564;28;20221;-74
2022/03/20 14:09:56;;;;;;;0.20;0.00;;;13.70;99.90;;;;;;20950095;28;20237;-75
2022/03/20 14:20:02;;;;;;;0.23;0.17;;;13.40;99.90;;;;;;20957707;28;20197;-66
2022/03/20 14:40:39;;;;;;;0.20;0.00;;;14.80;99.90;;;;;;20916868;28;20202;-68
2022/03/20 14:50:48;;;;;;;0.20;0.00;;;16.10;99.90;;;;;;20909270;28;20249;-67
2022/03/20 15:00:54;;;;;;;0.20;0.10;;;16.60;99.90;;;;;;20900821;28;20193;-69
2022/03/20 15:21:22;;;;;;;0.20;0.10;;;16.60;99.90;;;;;;20917002;28;20198;-68
2022/03/20 15:31:25;;;;;;;0.20;0.00;;;16.40;99.90;;;;;;20928736;28;20442;-67
2022/03/20 15:41:31;;;;;;;0.20;0.00;;;15.70;99.90;;;;;;20923717;28;20197;-65
2022/03/20 15:51:35;;;;;;;0.20;0.10;;;15.60;99.90;;;;;;20957490;28;20240;-74
2022/03/20 16:01:40;;;;;;;0.20;0.10;;;15.40;99.90;;;;;;20914887;28;20197;-74
2022/03/20 16:11:44;;;;;;;0.20;0.00;;;15.10;99.90;;;;;;20918606;28;20259;-73
2022/03/20 16:21:49;;;;;;;0.20;0.00;;;15.30;99.90;;;;;;20935566;28;20204;-75
2022/03/20 16:32:01;;;;;;;0.20;0.00;;;15.20;99.90;;;;;;20957446;28;20237;-66
2022/03/20 16:42:07;;;;;;;0.20;0.10;;;15.30;99.90;;;;;;20950627;28;20251;-65
2022/03/20 16:52:10;;;;;;;0.20;0.00;;;15.40;99.90;;;;;;20950044;28;20233;-66
2022/03/20 17:02:18;;;;;;;0.20;0.00;;;15.40;99.90;;;;;;20957701;28;20204;-66
2022/03/20 17:12:24;;;;;;;0.20;0.10;;;15.20;99.90;;;;;;20946173;28;20387;-78
2022/03/20 17:22:29;;;;;;;0.20;0.00;;;14.70;99.90;;;;;;20938957;28;20205;-74
2022/03/20 17:32:33;;;;;;;0.20;0.00;;;14.80;99.90;;;;;;20910592;28;20391;-64
2022/03/20 17:42:39;;;;;;;0.20;0.07;;;14.60;99.90;;;;;;20918151;28;20198;-64
2022/03/20 17:52:43;;;;;;;0.20;0.00;;;14.40;99.90;;;;;;20895385;28;20233;-65
2022/03/20 18:13:11;;;;;;;0.20;0.10;;;14.00;99.90;;;;;;20921601;28;20225;-65
2022/03/20 18:23:17;;;;;;;0.20;0.00;;;14.00;99.90;;;;;;20959645;28;20197;-66
2022/03/20 18:33:21;;;;;;;0.20;0.10;;;14.00;99.90;;;;;;20945496;28;20495;-63
2022/03/20 18:43:27;;;;;;;0.20;0.10;;;13.90;99.90;;;;;;20919748;28;20216;-65
2022/03/20 18:53:31;;;;;;;0.20;0.00;;;13.90;99.90;;;;;;20897842;28;20326;-65
2022/03/20 19:03:36;;;;;;;0.20;0.00;;;13.90;99.90;;;;;;20924513;28;20194;-65
2022/03/20 19:13:40;;;;;;;0.20;0.00;;;13.80;99.90;;;;;;20912444;28;20548;-66
2022/03/20 19:23:46;;;;;;;0.20;0.00;;;14.00;99.90;;;;;;20886235;28;20202;-65
2022/03/20 19:33:49;;;;;;;0.20;0.00;;;13.90;99.90;;;;;;20889754;28;20233;-66
2022/03/20 19:43:54;;;;;;;0.20;0.10;;;13.80;99.90;;;;;;20958852;28;20201;-65
2022/03/20 19:53:58;;;;;;;0.20;0.00;;;13.70;99.90;;;;;;20952579;28;20229;-75
2022/03/20 20:04:04;;;;;;;0.20;0.00;;;13.80;99.90;;;;;;20940718;28;20208;-77
2022/03/20 20:24:35;;;;;;;0.20;0.10;;;13.70;99.90;;;;;;20918930;28;20225;-77
2022/03/20 20:34:45;;;;;;;0.20;0.00;;;13.80;99.90;;;;;;20882237;28;20230;-66
2022/03/20 20:44:52;;;;;;;0.20;0.00;;;13.70;99.90;;;;;;20964182;28;20193;-67
2022/03/20 20:54:56;;;;;;;0.20;0.10;;;13.60;99.90;;;;;;20957886;28;20225;-65
2022/03/20 21:05:01;;;;;;;0.20;0.00;;;13.60;99.90;;;;;;20969801;28;20198;-65
2022/03/20 21:15:06;;;;;;;0.20;0.00;;;13.50;99.90;;;;;;20969466;28;20221;-66
2022/03/20 21:25:12;;;;;;;0.20;0.10;;;13.60;99.90;;;;;;20968551;28;20221;-67
2022/03/20 21:35:16;;;;;;;0.20;0.10;;;13.50;99.90;;;;;;20942053;28;20226;-66
2022/03/20 21:45:21;;;;;;;0.20;0.00;;;13.40;99.90;;;;;;20904542;28;20343;-66
2022/03/20 21:55:25;;;;;;;0.20;0.00;;;13.40;99.90;;;;;;20909142;28;20244;-67
2022/03/20 22:05:31;;;;;;;0.20;0.00;;;13.40;99.90;;;;;;20907404;28;20581;-66
2022/03/20 22:15:35;;;;;;;0.20;0.00;;;13.50;99.90;;;;;;20891447;28;20222;-67
2022/03/20 22:25:40;;;;;;;0.20;0.00;;;13.50;99.90;;;;;;20920965;28;20221;-66
2022/03/20 22:46:09;;;;;;;0.20;0.00;;;13.40;99.90;;;;;;20913069;28;20264;-67
2022/03/20 22:56:14;;;;;;;0.20;0.00;;;13.40;99.90;;;;;;20919405;28;20231;-65
2022/03/20 23:06:19;;;;;;;0.20;0.00;;;13.30;99.90;;;;;;20870430;28;20457;-65
2022/03/20 23:16:24;;;;;;;0.20;0.00;;;13.30;99.90;;;;;;20894695;28;20240;-77
2022/03/20 23:26:30;;;;;;;0.20;0.10;;;13.30;99.90;;;;;;20948005;28;20461;-73
2022/03/20 23:36:34;;;;;;;0.20;0.00;;;13.30;99.90;;;;;;20962787;28;20240;-87
2022/03/20 23:46:39;;;;;;;0.20;0.10;;;13.40;99.90;;;;;;20958230;28;20392;-85
2022/03/20 23:56:44;;;;;;;0.20;0.10;;;13.20;99.90;;;;;;20904415;28;20214;-80
